sensor_id;sensor_type;location;lat;lon;timestamp;P1;durP1;ratioP1;P2;durP2;ratioP2
10509;SDS011;5303;53.266;10.410;2022-11-20T00:01:49;6.80;;;4.90;;
10509;SDS011;5303;53.266;10.410;2022-11-20T00:04:14;6.53;;;5.07;;
10509;SDS011;5303;53.266;10.410;2022-11-20T00:06:42;6.70;;;4.70;;
10509;SDS011;5303;53.266;10.410;2022-11-20T00:09:09;7.87;;;4.80;;
10509;SDS011;5303;53.266;10.410;2022-11-20T00:11:34;8.10;;;5.43;;
10509;SDS011;5303;53.266;10.410;2022-11-20T00:14:00;7.33;;;5.33;;
10509;SDS011;5303;53.266;10.410;2022-11-20T00:16:27;6.93;;;5.20;;
10509;SDS011;5303;53.266;10.410;2022-11-20T00:18:54;7.27;;;5.10;;
10509;SDS011;5303;53.266;10.410;2022-11-20T00:21:24;7.13;;;5.27;;
10509;SDS011;5303;53.266;10.410;2022-11-20T00:23:52;7.23;;;4.83;;
10509;SDS011;5303;53.266;10.410;2022-11-20T00:26:20;5.83;;;5.20;;
10509;SDS011;5303;53.266;10.410;2022-11-20T00:28:50;10.17;;;5.53;;
10509;SDS011;5303;53.266;10.410;2022-11-20T00:31:18;6.40;;;4.87;;
10509;SDS011;5303;53.266;10.410;2022-11-20T00:33:44;9.57;;;5.90;;
10509;SDS011;5303;53.266;10.410;2022-11-20T00:36:11;8.87;;;5.63;;
10509;SDS011;5303;53.266;10.410;2022-11-20T00:38:43;7.37;;;5.10;;
10509;SDS011;5303;53.266;10.410;2022-11-20T00:41:10;7.73;;;5.60;;
10509;SDS011;5303;53.266;10.410;2022-11-20T00:43:38;7.87;;;5.53;;
10509;SDS011;5303;53.266;10.410;2022-11-20T00:46:07;7.20;;;5.47;;
10509;SDS011;5303;53.266;10.410;2022-11-20T00:48:34;8.97;;;5.80;;
10509;SDS011;5303;53.266;10.410;2022-11-20T00:51:00;9.60;;;5.90;;
10509;SDS011;5303;53.266;10.410;2022-11-20T00:53:26;8.23;;;6.17;;
10509;SDS011;5303;53.266;10.410;2022-11-20T00:55:58;8.43;;;6.70;;
10509;SDS011;5303;53.266;10.410;2022-11-20T00:58:28;7.83;;;6.07;;
10509;SDS011;5303;53.266;10.410;2022-11-20T01:01:03;8.53;;;6.23;;
10509;SDS011;5303;53.266;10.410;2022-11-20T01:03:32;9.00;;;6.00;;
10509;SDS011;5303;53.266;10.410;2022-11-20T01:05:59;7.13;;;5.87;;
10509;SDS011;5303;53.266;10.410;2022-11-20T01:08:28;9.07;;;6.37;;
10509;SDS011;5303;53.266;10.410;2022-11-20T01:10:58;8.07;;;6.00;;
10509;SDS011;5303;53.266;10.410;2022-11-20T01:13:28;7.13;;;5.80;;
10509;SDS011;5303;53.266;10.410;2022-11-20T01:18:38;7.50;;;6.03;;
10509;SDS011;5303;53.266;10.410;2022-11-20T01:21:06;8.63;;;5.73;;
10509;SDS011;5303;53.266;10.410;2022-11-20T01:23:37;8.60;;;5.67;;
10509;SDS011;5303;53.266;10.410;2022-11-20T01:26:06;8.30;;;5.43;;
10509;SDS011;5303;53.266;10.410;2022-11-20T01:28:34;7.47;;;5.67;;
10509;SDS011;5303;53.266;10.410;2022-11-20T01:31:00;6.37;;;5.43;;
10509;SDS011;5303;53.266;10.410;2022-11-20T01:33:26;8.27;;;6.00;;
10509;SDS011;5303;53.266;10.410;2022-11-20T01:35:52;8.40;;;6.00;;
10509;SDS011;5303;53.266;10.410;2022-11-20T01:38:18;6.80;;;5.77;;
10509;SDS011;5303;53.266;10.410;2022-11-20T01:40:45;9.83;;;6.10;;
10509;SDS011;5303;53.266;10.410;2022-11-20T01:43:13;7.33;;;5.93;;
10509;SDS011;5303;53.266;10.410;2022-11-20T01:48:33;6.77;;;5.57;;
10509;SDS011;5303;53.266;10.410;2022-11-20T01:51:06;7.57;;;5.70;;
10509;SDS011;5303;53.266;10.410;2022-11-20T01:53:41;8.20;;;5.93;;
10509;SDS011;5303;53.266;10.410;2022-11-20T01:56:08;7.73;;;5.50;;
10509;SDS011;5303;53.266;10.410;2022-11-20T01:58:37;8.07;;;6.00;;
10509;SDS011;5303;53.266;10.410;2022-11-20T02:01:07;8.70;;;5.67;;
10509;SDS011;5303;53.266;10.410;2022-11-20T02:03:32;7.97;;;5.83;;
10509;SDS011;5303;53.266;10.410;2022-11-20T02:06:16;9.17;;;5.40;;
10509;SDS011;5303;53.266;10.410;2022-11-20T02:08:45;7.53;;;5.57;;
10509;SDS011;5303;53.266;10.410;2022-11-20T02:11:11;6.40;;;5.33;;
10509;SDS011;5303;53.266;10.410;2022-11-20T02:13:37;9.30;;;6.03;;
10509;SDS011;5303;53.266;10.410;2022-11-20T02:18:39;7.17;;;5.27;;
10509;SDS011;5303;53.266;10.410;2022-11-20T02:21:06;7.73;;;5.53;;
10509;SDS011;5303;53.266;10.410;2022-11-20T02:23:39;9.67;;;6.10;;
10509;SDS011;5303;53.266;10.410;2022-11-20T02:26:18;8.03;;;5.40;;
10509;SDS011;5303;53.266;10.410;2022-11-20T02:28:45;7.00;;;5.67;;
10509;SDS011;5303;53.266;10.410;2022-11-20T02:31:11;7.53;;;5.90;;
10509;SDS011;5303;53.266;10.410;2022-11-20T02:33:36;8.63;;;6.07;;
10509;SDS011;5303;53.266;10.410;2022-11-20T02:36:01;6.53;;;5.47;;
10509;SDS011;5303;53.266;10.410;2022-11-20T02:38:27;7.33;;;5.33;;
10509;SDS011;5303;53.266;10.410;2022-11-20T02:40:53;7.30;;;5.33;;
10509;SDS011;5303;53.266;10.410;2022-11-20T02:43:18;8.03;;;5.83;;
10509;SDS011;5303;53.266;10.410;2022-11-20T02:45:43;6.73;;;5.73;;
10509;SDS011;5303;53.266;10.410;2022-11-20T02:48:08;7.53;;;6.03;;
10509;SDS011;5303;53.266;10.410;2022-11-20T02:50:36;8.30;;;5.73;;
10509;SDS011;5303;53.266;10.410;2022-11-20T02:53:02;7.87;;;5.30;;
10509;SDS011;5303;53.266;10.410;2022-11-20T02:55:28;7.30;;;5.03;;
10509;SDS011;5303;53.266;10.410;2022-11-20T02:57:53;6.90;;;5.27;;
10509;SDS011;5303;53.266;10.410;2022-11-20T03:00:18;5.40;;;4.80;;
10509;SDS011;5303;53.266;10.410;2022-11-20T03:02:44;7.60;;;5.30;;
10509;SDS011;5303;53.266;10.410;2022-11-20T03:05:09;6.63;;;5.20;;
10509;SDS011;5303;53.266;10.410;2022-11-20T03:07:34;7.10;;;5.23;;
10509;SDS011;5303;53.266;10.410;2022-11-20T03:09:59;6.53;;;5.17;;
10509;SDS011;5303;53.266;10.410;2022-11-20T03:12:25;6.60;;;4.73;;
10509;SDS011;5303;53.266;10.410;2022-11-20T03:14:50;6.00;;;4.80;;
10509;SDS011;5303;53.266;10.410;2022-11-20T03:17:15;8.70;;;5.33;;
10509;SDS011;5303;53.266;10.410;2022-11-20T03:19:41;7.83;;;5.23;;
10509;SDS011;5303;53.266;10.410;2022-11-20T03:22:06;7.43;;;5.47;;
10509;SDS011;5303;53.266;10.410;2022-11-20T03:24:31;6.00;;;4.93;;
10509;SDS011;5303;53.266;10.410;2022-11-20T03:26:56;6.43;;;5.23;;
10509;SDS011;5303;53.266;10.410;2022-11-20T03:29:22;9.20;;;5.57;;
10509;SDS011;5303;53.266;10.410;2022-11-20T03:31:47;7.07;;;5.20;;
10509;SDS011;5303;53.266;10.410;2022-11-20T03:34:12;7.17;;;5.13;;
10509;SDS011;5303;53.266;10.410;2022-11-20T03:36:39;8.17;;;5.17;;
10509;SDS011;5303;53.266;10.410;2022-11-20T03:39:05;7.57;;;5.37;;
10509;SDS011;5303;53.266;10.410;2022-11-20T03:41:35;7.50;;;5.10;;
10509;SDS011;5303;53.266;10.410;2022-11-20T03:44:03;9.30;;;5.80;;
10509;SDS011;5303;53.266;10.410;2022-11-20T03:46:30;10.07;;;5.57;;
10509;SDS011;5303;53.266;10.410;2022-11-20T03:48:55;6.63;;;5.20;;
10509;SDS011;5303;53.266;10.410;2022-11-20T03:51:22;8.50;;;5.83;;
10509;SDS011;5303;53.266;10.410;2022-11-20T03:53:49;7.07;;;5.30;;
10509;SDS011;5303;53.266;10.410;2022-11-20T03:56:17;6.23;;;4.67;;
10509;SDS011;5303;53.266;10.410;2022-11-20T03:58:44;7.13;;;5.07;;
10509;SDS011;5303;53.266;10.410;2022-11-20T04:01:12;6.40;;;5.30;;
10509;SDS011;5303;53.266;10.410;2022-11-20T04:03:42;10.50;;;5.43;;
10509;SDS011;5303;53.266;10.410;2022-11-20T04:06:09;6.33;;;5.07;;
10509;SDS011;5303;53.266;10.410;2022-11-20T04:08:40;5.53;;;4.70;;
10509;SDS011;5303;53.266;10.410;2022-11-20T04:13:34;7.03;;;5.00;;
10509;SDS011;5303;53.266;10.410;2022-11-20T04:15:59;6.27;;;4.77;;
10509;SDS011;5303;53.266;10.410;2022-11-20T04:18:25;7.40;;;5.37;;
10509;SDS011;5303;53.266;10.410;2022-11-20T04:20:50;8.80;;;5.33;;
10509;SDS011;5303;53.266;10.410;2022-11-20T04:23:15;7.67;;;5.03;;
10509;SDS011;5303;53.266;10.410;2022-11-20T04:25:40;8.93;;;5.80;;
10509;SDS011;5303;53.266;10.410;2022-11-20T04:28:06;10.97;;;5.60;;
10509;SDS011;5303;53.266;10.410;2022-11-20T04:30:31;6.57;;;5.63;;
10509;SDS011;5303;53.266;10.410;2022-11-20T04:32:56;7.17;;;5.70;;
10509;SDS011;5303;53.266;10.410;2022-11-20T04:35:21;7.57;;;5.30;;
10509;SDS011;5303;53.266;10.410;2022-11-20T04:37:47;8.30;;;5.13;;
10509;SDS011;5303;53.266;10.410;2022-11-20T04:40:12;7.07;;;5.43;;
10509;SDS011;5303;53.266;10.410;2022-11-20T04:42:37;7.03;;;5.50;;
10509;SDS011;5303;53.266;10.410;2022-11-20T04:45:03;10.73;;;5.73;;
10509;SDS011;5303;53.266;10.410;2022-11-20T04:47:29;7.63;;;5.47;;
10509;SDS011;5303;53.266;10.410;2022-11-20T04:49:55;6.73;;;5.50;;
10509;SDS011;5303;53.266;10.410;2022-11-20T04:52:20;6.97;;;5.70;;
10509;SDS011;5303;53.266;10.410;2022-11-20T04:54:45;9.77;;;5.70;;
10509;SDS011;5303;53.266;10.410;2022-11-20T04:57:12;8.70;;;5.93;;
10509;SDS011;5303;53.266;10.410;2022-11-20T04:59:37;7.90;;;5.70;;
10509;SDS011;5303;53.266;10.410;2022-11-20T05:02:03;7.57;;;5.47;;
10509;SDS011;5303;53.266;10.410;2022-11-20T05:04:28;8.50;;;6.10;;
10509;SDS011;5303;53.266;10.410;2022-11-20T05:06:53;8.10;;;5.57;;
10509;SDS011;5303;53.266;10.410;2022-11-20T05:09:18;8.43;;;6.27;;
10509;SDS011;5303;53.266;10.410;2022-11-20T05:11:44;8.73;;;5.97;;
10509;SDS011;5303;53.266;10.410;2022-11-20T05:14:09;8.23;;;6.17;;
10509;SDS011;5303;53.266;10.410;2022-11-20T05:16:34;7.17;;;5.50;;
10509;SDS011;5303;53.266;10.410;2022-11-20T05:19:00;8.80;;;6.30;;
10509;SDS011;5303;53.266;10.410;2022-11-20T05:21:26;8.03;;;5.60;;
10509;SDS011;5303;53.266;10.410;2022-11-20T05:23:52;9.03;;;6.20;;
10509;SDS011;5303;53.266;10.410;2022-11-20T05:26:18;9.13;;;6.17;;
10509;SDS011;5303;53.266;10.410;2022-11-20T05:28:46;7.30;;;5.43;;
10509;SDS011;5303;53.266;10.410;2022-11-20T05:31:13;9.57;;;6.40;;
10509;SDS011;5303;53.266;10.410;2022-11-20T05:33:41;8.97;;;5.90;;
10509;SDS011;5303;53.266;10.410;2022-11-20T05:36:08;8.03;;;5.93;;
10509;SDS011;5303;53.266;10.410;2022-11-20T05:38:34;8.80;;;6.27;;
10509;SDS011;5303;53.266;10.410;2022-11-20T05:41:06;6.97;;;6.10;;
10509;SDS011;5303;53.266;10.410;2022-11-20T05:43:33;7.67;;;6.20;;
10509;SDS011;5303;53.266;10.410;2022-11-20T05:46:00;7.23;;;5.37;;
10509;SDS011;5303;53.266;10.410;2022-11-20T05:48:26;7.87;;;5.90;;
10509;SDS011;5303;53.266;10.410;2022-11-20T05:50:51;9.47;;;6.50;;
10509;SDS011;5303;53.266;10.410;2022-11-20T05:53:17;8.97;;;5.93;;
10509;SDS011;5303;53.266;10.410;2022-11-20T05:55:42;8.87;;;6.37;;
10509;SDS011;5303;53.266;10.410;2022-11-20T05:58:07;8.53;;;6.30;;
10509;SDS011;5303;53.266;10.410;2022-11-20T06:00:32;9.50;;;6.23;;
10509;SDS011;5303;53.266;10.410;2022-11-20T06:02:58;8.23;;;6.43;;
10509;SDS011;5303;53.266;10.410;2022-11-20T06:05:23;8.10;;;6.47;;
10509;SDS011;5303;53.266;10.410;2022-11-20T06:07:48;8.70;;;6.37;;
10509;SDS011;5303;53.266;10.410;2022-11-20T06:10:13;10.30;;;7.20;;
10509;SDS011;5303;53.266;10.410;2022-11-20T06:12:39;11.00;;;7.73;;
10509;SDS011;5303;53.266;10.410;2022-11-20T06:15:04;9.03;;;7.63;;
10509;SDS011;5303;53.266;10.410;2022-11-20T06:17:30;11.83;;;7.37;;
10509;SDS011;5303;53.266;10.410;2022-11-20T06:19:55;10.43;;;7.60;;
10509;SDS011;5303;53.266;10.410;2022-11-20T06:22:21;10.47;;;7.90;;
10509;SDS011;5303;53.266;10.410;2022-11-20T06:24:46;11.03;;;8.63;;
10509;SDS011;5303;53.266;10.410;2022-11-20T06:27:12;12.93;;;8.63;;
10509;SDS011;5303;53.266;10.410;2022-11-20T06:29:37;13.63;;;9.50;;
10509;SDS011;5303;53.266;10.410;2022-11-20T06:32:02;10.97;;;8.40;;
10509;SDS011;5303;53.266;10.410;2022-11-20T06:34:28;10.90;;;8.27;;
10509;SDS011;5303;53.266;10.410;2022-11-20T06:36:53;12.60;;;9.60;;
10509;SDS011;5303;53.266;10.410;2022-11-20T06:39:18;11.97;;;8.80;;
10509;SDS011;5303;53.266;10.410;2022-11-20T06:41:44;11.67;;;8.80;;
10509;SDS011;5303;53.266;10.410;2022-11-20T06:44:09;11.83;;;8.67;;
10509;SDS011;5303;53.266;10.410;2022-11-20T06:46:35;13.43;;;8.60;;
10509;SDS011;5303;53.266;10.410;2022-11-20T06:49:00;12.30;;;8.60;;
10509;SDS011;5303;53.266;10.410;2022-11-20T06:51:25;11.70;;;8.83;;
10509;SDS011;5303;53.266;10.410;2022-11-20T06:53:51;13.40;;;9.67;;
10509;SDS011;5303;53.266;10.410;2022-11-20T06:56:16;11.20;;;9.07;;
10509;SDS011;5303;53.266;10.410;2022-11-20T06:58:41;12.23;;;9.27;;
10509;SDS011;5303;53.266;10.410;2022-11-20T07:01:08;13.10;;;9.03;;
10509;SDS011;5303;53.266;10.410;2022-11-20T07:03:35;13.00;;;8.37;;
10509;SDS011;5303;53.266;10.410;2022-11-20T07:06:01;15.17;;;9.47;;
10509;SDS011;5303;53.266;10.410;2022-11-20T07:08:27;12.67;;;9.27;;
10509;SDS011;5303;53.266;10.410;2022-11-20T07:10:56;13.90;;;9.00;;
10509;SDS011;5303;53.266;10.410;2022-11-20T07:13:23;11.53;;;8.97;;
10509;SDS011;5303;53.266;10.410;2022-11-20T07:15:48;11.93;;;8.70;;
10509;SDS011;5303;53.266;10.410;2022-11-20T07:18:14;15.43;;;9.63;;
10509;SDS011;5303;53.266;10.410;2022-11-20T07:20:39;13.20;;;9.97;;
10509;SDS011;5303;53.266;10.410;2022-11-20T07:23:04;15.20;;;11.00;;
10509;SDS011;5303;53.266;10.410;2022-11-20T07:25:30;13.93;;;9.40;;
10509;SDS011;5303;53.266;10.410;2022-11-20T07:27:58;11.80;;;9.20;;
10509;SDS011;5303;53.266;10.410;2022-11-20T07:30:25;12.83;;;9.30;;
10509;SDS011;5303;53.266;10.410;2022-11-20T07:32:51;14.03;;;9.67;;
10509;SDS011;5303;53.266;10.410;2022-11-20T07:35:17;11.10;;;8.10;;
10509;SDS011;5303;53.266;10.410;2022-11-20T07:37:43;13.30;;;9.30;;
10509;SDS011;5303;53.266;10.410;2022-11-20T07:40:10;13.70;;;8.97;;
10509;SDS011;5303;53.266;10.410;2022-11-20T07:42:46;15.57;;;9.60;;
10509;SDS011;5303;53.266;10.410;2022-11-20T07:45:13;14.57;;;10.43;;
10509;SDS011;5303;53.266;10.410;2022-11-20T07:47:38;14.60;;;11.10;;
10509;SDS011;5303;53.266;10.410;2022-11-20T07:50:04;13.47;;;10.33;;
10509;SDS011;5303;53.266;10.410;2022-11-20T07:52:29;13.90;;;10.03;;
10509;SDS011;5303;53.266;10.410;2022-11-20T07:54:54;12.90;;;10.07;;
10509;SDS011;5303;53.266;10.410;2022-11-20T07:57:20;13.87;;;10.30;;
10509;SDS011;5303;53.266;10.410;2022-11-20T07:59:45;15.83;;;10.10;;
10509;SDS011;5303;53.266;10.410;2022-11-20T08:02:11;12.33;;;9.13;;
10509;SDS011;5303;53.266;10.410;2022-11-20T08:04:36;13.90;;;9.73;;
10509;SDS011;5303;53.266;10.410;2022-11-20T08:07:01;12.27;;;9.63;;
10509;SDS011;5303;53.266;10.410;2022-11-20T08:09:27;13.00;;;9.53;;
10509;SDS011;5303;53.266;10.410;2022-11-20T08:11:53;13.77;;;8.87;;
10509;SDS011;5303;53.266;10.410;2022-11-20T08:14:37;11.17;;;8.77;;
10509;SDS011;5303;53.266;10.410;2022-11-20T08:17:03;14.00;;;9.47;;
10509;SDS011;5303;53.266;10.410;2022-11-20T08:19:28;12.90;;;8.77;;
10509;SDS011;5303;53.266;10.410;2022-11-20T08:21:54;12.37;;;8.53;;
10509;SDS011;5303;53.266;10.410;2022-11-20T08:24:20;13.10;;;9.10;;
10509;SDS011;5303;53.266;10.410;2022-11-20T08:26:45;10.53;;;8.40;;
10509;SDS011;5303;53.266;10.410;2022-11-20T08:29:10;11.20;;;8.33;;
10509;SDS011;5303;53.266;10.410;2022-11-20T08:31:35;12.70;;;9.00;;
10509;SDS011;5303;53.266;10.410;2022-11-20T08:34:01;11.20;;;8.47;;
10509;SDS011;5303;53.266;10.410;2022-11-20T08:36:26;11.97;;;7.97;;
10509;SDS011;5303;53.266;10.410;2022-11-20T08:38:53;10.33;;;8.20;;
10509;SDS011;5303;53.266;10.410;2022-11-20T08:41:19;10.70;;;8.10;;
10509;SDS011;5303;53.266;10.410;2022-11-20T08:43:56;11.03;;;7.23;;
10509;SDS011;5303;53.266;10.410;2022-11-20T08:46:26;11.27;;;7.67;;
10509;SDS011;5303;53.266;10.410;2022-11-20T08:48:55;11.60;;;8.03;;
10509;SDS011;5303;53.266;10.410;2022-11-20T08:51:20;11.43;;;8.80;;
10509;SDS011;5303;53.266;10.410;2022-11-20T08:53:46;8.67;;;7.37;;
10509;SDS011;5303;53.266;10.410;2022-11-20T08:56:13;10.20;;;7.57;;
10509;SDS011;5303;53.266;10.410;2022-11-20T08:58:38;11.07;;;8.10;;
10509;SDS011;5303;53.266;10.410;2022-11-20T09:01:04;10.73;;;7.50;;
10509;SDS011;5303;53.266;10.410;2022-11-20T09:03:29;13.73;;;8.73;;
10509;SDS011;5303;53.266;10.410;2022-11-20T09:06:02;10.37;;;8.10;;
10509;SDS011;5303;53.266;10.410;2022-11-20T09:08:28;10.67;;;8.03;;
10509;SDS011;5303;53.266;10.410;2022-11-20T09:10:55;9.07;;;7.13;;
10509;SDS011;5303;53.266;10.410;2022-11-20T09:13:22;10.33;;;7.30;;
10509;SDS011;5303;53.266;10.410;2022-11-20T09:15:52;10.67;;;7.17;;
10509;SDS011;5303;53.266;10.410;2022-11-20T09:18:28;11.60;;;7.67;;
10509;SDS011;5303;53.266;10.410;2022-11-20T09:20:59;12.33;;;7.70;;
10509;SDS011;5303;53.266;10.410;2022-11-20T09:23:25;10.93;;;7.67;;
10509;SDS011;5303;53.266;10.410;2022-11-20T09:25:51;10.17;;;7.83;;
10509;SDS011;5303;53.266;10.410;2022-11-20T09:28:17;8.53;;;6.80;;
10509;SDS011;5303;53.266;10.410;2022-11-20T09:30:43;9.87;;;7.23;;
10509;SDS011;5303;53.266;10.410;2022-11-20T09:33:09;10.60;;;7.67;;
10509;SDS011;5303;53.266;10.410;2022-11-20T09:35:34;12.13;;;8.27;;
10509;SDS011;5303;53.266;10.410;2022-11-20T09:38:04;10.30;;;7.33;;
10509;SDS011;5303;53.266;10.410;2022-11-20T09:40:30;8.93;;;6.97;;
10509;SDS011;5303;53.266;10.410;2022-11-20T09:48:32;11.27;;;7.90;;
10509;SDS011;5303;53.266;10.410;2022-11-20T09:51:14;9.93;;;8.10;;
10509;SDS011;5303;53.266;10.410;2022-11-20T09:56:45;10.30;;;8.00;;
10509;SDS011;5303;53.266;10.410;2022-11-20T09:59:22;10.63;;;7.33;;
10509;SDS011;5303;53.266;10.410;2022-11-20T10:01:54;11.40;;;8.07;;
10509;SDS011;5303;53.266;10.410;2022-11-20T10:04:20;9.30;;;7.60;;
10509;SDS011;5303;53.266;10.410;2022-11-20T10:09:28;11.83;;;8.37;;
10509;SDS011;5303;53.266;10.410;2022-11-20T10:12:05;10.27;;;7.90;;
10509;SDS011;5303;53.266;10.410;2022-11-20T10:14:37;9.50;;;7.87;;
10509;SDS011;5303;53.266;10.410;2022-11-20T10:23:00;7.77;;;6.47;;
10509;SDS011;5303;53.266;10.410;2022-11-20T10:25:37;7.93;;;6.20;;
10509;SDS011;5303;53.266;10.410;2022-11-20T10:31:02;9.50;;;7.00;;
10509;SDS011;5303;53.266;10.410;2022-11-20T10:33:32;8.70;;;6.20;;
10509;SDS011;5303;53.266;10.410;2022-11-20T10:38:43;10.03;;;6.80;;
10509;SDS011;5303;53.266;10.410;2022-11-20T10:41:23;8.57;;;7.00;;
10509;SDS011;5303;53.266;10.410;2022-11-20T10:47:01;10.33;;;8.00;;
10509;SDS011;5303;53.266;10.410;2022-11-20T10:49:26;9.90;;;7.80;;
10509;SDS011;5303;53.266;10.410;2022-11-20T10:51:59;9.80;;;7.37;;
10509;SDS011;5303;53.266;10.410;2022-11-20T10:54:36;10.68;;;9.15;;
10509;SDS011;5303;53.266;10.410;2022-11-20T11:02:32;12.07;;;7.60;;
10509;SDS011;5303;53.266;10.410;2022-11-20T11:05:04;8.87;;;7.00;;
10509;SDS011;5303;53.266;10.410;2022-11-20T11:07:50;9.37;;;6.40;;
10509;SDS011;5303;53.266;10.410;2022-11-20T11:10:32;9.67;;;6.33;;
10509;SDS011;5303;53.266;10.410;2022-11-20T11:13:20;9.23;;;6.50;;
10509;SDS011;5303;53.266;10.410;2022-11-20T11:15:50;10.53;;;7.33;;
10509;SDS011;5303;53.266;10.410;2022-11-20T11:18:29;12.40;;;7.23;;
10509;SDS011;5303;53.266;10.410;2022-11-20T11:21:02;11.17;;;7.20;;
10509;SDS011;5303;53.266;10.410;2022-11-20T11:23:31;9.73;;;7.20;;
10509;SDS011;5303;53.266;10.410;2022-11-20T11:26:20;8.07;;;7.07;;
10509;SDS011;5303;53.266;10.410;2022-11-20T11:28:55;9.00;;;6.67;;
10509;SDS011;5303;53.266;10.410;2022-11-20T11:31:31;8.50;;;6.77;;
10509;SDS011;5303;53.266;10.410;2022-11-20T11:34:12;9.27;;;6.57;;
10509;SDS011;5303;53.266;10.410;2022-11-20T11:36:39;9.43;;;6.47;;
10509;SDS011;5303;53.266;10.410;2022-11-20T11:39:08;8.27;;;6.70;;
10509;SDS011;5303;53.266;10.410;2022-11-20T11:41:39;6.63;;;5.73;;
10509;SDS011;5303;53.266;10.410;2022-11-20T11:44:18;6.93;;;5.90;;
10509;SDS011;5303;53.266;10.410;2022-11-20T11:47:05;6.67;;;5.80;;
10509;SDS011;5303;53.266;10.410;2022-11-20T11:49:36;6.80;;;5.73;;
10509;SDS011;5303;53.266;10.410;2022-11-20T11:54:37;5.80;;;4.90;;
10509;SDS011;5303;53.266;10.410;2022-11-20T11:57:17;4.97;;;4.47;;
10509;SDS011;5303;53.266;10.410;2022-11-20T12:00:09;5.43;;;4.93;;
10509;SDS011;5303;53.266;10.410;2022-11-20T12:02:42;6.85;;;5.28;;
10509;SDS011;5303;53.266;10.410;2022-11-20T12:08:02;5.67;;;4.40;;
10509;SDS011;5303;53.266;10.410;2022-11-20T12:15:57;5.33;;;4.70;;
10509;SDS011;5303;53.266;10.410;2022-11-20T12:18:23;4.87;;;3.90;;
10509;SDS011;5303;53.266;10.410;2022-11-20T12:21:12;6.33;;;5.00;;
10509;SDS011;5303;53.266;10.410;2022-11-20T12:26:33;5.30;;;4.60;;
10509;SDS011;5303;53.266;10.410;2022-11-20T12:29:18;6.17;;;4.70;;
10509;SDS011;5303;53.266;10.410;2022-11-20T12:40:07;5.37;;;4.73;;
10509;SDS011;5303;53.266;10.410;2022-11-20T12:42:47;6.23;;;5.27;;
10509;SDS011;5303;53.266;10.410;2022-11-20T12:51:21;7.83;;;6.63;;
10509;SDS011;5303;53.266;10.410;2022-11-20T12:57:09;11.23;;;10.13;;
10509;SDS011;5303;53.266;10.410;2022-11-20T13:05:29;9.17;;;6.40;;
10509;SDS011;5303;53.266;10.410;2022-11-20T13:08:02;7.03;;;6.33;;
10509;SDS011;5303;53.266;10.410;2022-11-20T13:10:38;7.07;;;5.90;;
10509;SDS011;5303;53.266;10.410;2022-11-20T13:16:19;8.33;;;6.53;;
10509;SDS011;5303;53.266;10.410;2022-11-20T13:18:51;8.47;;;6.43;;
10509;SDS011;5303;53.266;10.410;2022-11-20T13:21:36;8.53;;;6.90;;
10509;SDS011;5303;53.266;10.410;2022-11-20T13:24:07;9.00;;;7.37;;
10509;SDS011;5303;53.266;10.410;2022-11-20T13:27:04;8.83;;;6.93;;
10509;SDS011;5303;53.266;10.410;2022-11-20T13:29:29;8.00;;;6.43;;
10509;SDS011;5303;53.266;10.410;2022-11-20T13:34:58;10.83;;;7.27;;
10509;SDS011;5303;53.266;10.410;2022-11-20T13:40:04;6.27;;;5.67;;
10509;SDS011;5303;53.266;10.410;2022-11-20T13:42:45;6.10;;;4.43;;
10509;SDS011;5303;53.266;10.410;2022-11-20T13:45:25;5.60;;;4.47;;
10509;SDS011;5303;53.266;10.410;2022-11-20T13:47:52;7.10;;;4.37;;
10509;SDS011;5303;53.266;10.410;2022-11-20T13:50:18;5.57;;;4.67;;
10509;SDS011;5303;53.266;10.410;2022-11-20T13:56:01;3.93;;;3.50;;
10509;SDS011;5303;53.266;10.410;2022-11-20T13:58:44;4.30;;;3.90;;
10509;SDS011;5303;53.266;10.410;2022-11-20T14:01:17;3.73;;;3.33;;
10509;SDS011;5303;53.266;10.410;2022-11-20T14:03:46;4.37;;;3.73;;
10509;SDS011;5303;53.266;10.410;2022-11-20T14:06:31;4.00;;;3.60;;
10509;SDS011;5303;53.266;10.410;2022-11-20T14:08:59;10.17;;;9.27;;
10509;SDS011;5303;53.266;10.410;2022-11-20T14:11:26;28.47;;;23.50;;
10509;SDS011;5303;53.266;10.410;2022-11-20T14:16:30;10.10;;;9.00;;
10509;SDS011;5303;53.266;10.410;2022-11-20T14:18:57;9.83;;;8.83;;
10509;SDS011;5303;53.266;10.410;2022-11-20T14:21:44;8.13;;;6.80;;
10509;SDS011;5303;53.266;10.410;2022-11-20T14:24:10;9.18;;;6.43;;
10509;SDS011;5303;53.266;10.410;2022-11-20T14:26:37;8.73;;;6.33;;
10509;SDS011;5303;53.266;10.410;2022-11-20T14:29:11;11.27;;;7.17;;
10509;SDS011;5303;53.266;10.410;2022-11-20T14:31:52;14.90;;;7.57;;
10509;SDS011;5303;53.266;10.410;2022-11-20T14:34:20;8.90;;;6.53;;
10509;SDS011;5303;53.266;10.410;2022-11-20T14:36:49;10.57;;;7.07;;
10509;SDS011;5303;53.266;10.410;2022-11-20T14:39:20;6.57;;;5.37;;
10509;SDS011;5303;53.266;10.410;2022-11-20T14:41:50;7.57;;;5.50;;
10509;SDS011;5303;53.266;10.410;2022-11-20T14:44:17;7.57;;;4.87;;
10509;SDS011;5303;53.266;10.410;2022-11-20T14:46:42;5.37;;;4.03;;
10509;SDS011;5303;53.266;10.410;2022-11-20T14:49:08;5.93;;;4.13;;
10509;SDS011;5303;53.266;10.410;2022-11-20T14:51:38;6.10;;;4.17;;
10509;SDS011;5303;53.266;10.410;2022-11-20T14:54:14;5.87;;;5.03;;
10509;SDS011;5303;53.266;10.410;2022-11-20T14:56:57;5.33;;;4.27;;
10509;SDS011;5303;53.266;10.410;2022-11-20T14:59:25;4.90;;;4.40;;
10509;SDS011;5303;53.266;10.410;2022-11-20T15:02:02;4.63;;;3.93;;
10509;SDS011;5303;53.266;10.410;2022-11-20T15:04:29;7.30;;;4.37;;
10509;SDS011;5303;53.266;10.410;2022-11-20T15:06:56;5.73;;;4.13;;
10509;SDS011;5303;53.266;10.410;2022-11-20T15:09:23;4.77;;;4.10;;
10509;SDS011;5303;53.266;10.410;2022-11-20T15:11:52;4.53;;;3.70;;
10509;SDS011;5303;53.266;10.410;2022-11-20T15:14:20;5.17;;;3.90;;
10509;SDS011;5303;53.266;10.410;2022-11-20T15:16:46;5.40;;;4.30;;
10509;SDS011;5303;53.266;10.410;2022-11-20T15:19:21;4.30;;;3.90;;
10509;SDS011;5303;53.266;10.410;2022-11-20T15:21:49;6.47;;;4.20;;
10509;SDS011;5303;53.266;10.410;2022-11-20T15:24:15;4.73;;;4.17;;
10509;SDS011;5303;53.266;10.410;2022-11-20T15:26:41;5.37;;;4.80;;
10509;SDS011;5303;53.266;10.410;2022-11-20T15:29:10;8.90;;;8.00;;
10509;SDS011;5303;53.266;10.410;2022-11-20T15:31:38;9.13;;;8.23;;
10509;SDS011;5303;53.266;10.410;2022-11-20T15:34:10;9.60;;;8.57;;
10509;SDS011;5303;53.266;10.410;2022-11-20T15:36:37;9.23;;;7.53;;
10509;SDS011;5303;53.266;10.410;2022-11-20T15:39:03;12.10;;;10.15;;
10509;SDS011;5303;53.266;10.410;2022-11-20T15:41:28;10.77;;;8.57;;
10509;SDS011;5303;53.266;10.410;2022-11-20T15:43:54;10.97;;;8.33;;
10509;SDS011;5303;53.266;10.410;2022-11-20T15:46:22;9.90;;;7.67;;
10509;SDS011;5303;53.266;10.410;2022-11-20T15:48:52;8.77;;;7.13;;
10509;SDS011;5303;53.266;10.410;2022-11-20T15:51:26;9.20;;;6.67;;
10509;SDS011;5303;53.266;10.410;2022-11-20T15:53:54;8.17;;;6.50;;
10509;SDS011;5303;53.266;10.410;2022-11-20T15:56:20;8.47;;;6.60;;
10509;SDS011;5303;53.266;10.410;2022-11-20T15:58:45;9.47;;;6.23;;
10509;SDS011;5303;53.266;10.410;2022-11-20T16:01:11;8.17;;;5.70;;
10509;SDS011;5303;53.266;10.410;2022-11-20T16:03:38;7.10;;;5.83;;
10509;SDS011;5303;53.266;10.410;2022-11-20T16:06:04;11.00;;;7.50;;
10509;SDS011;5303;53.266;10.410;2022-11-20T16:08:29;10.47;;;7.97;;
10509;SDS011;5303;53.266;10.410;2022-11-20T16:10:54;13.27;;;8.40;;
10509;SDS011;5303;53.266;10.410;2022-11-20T16:13:20;9.43;;;7.77;;
10509;SDS011;5303;53.266;10.410;2022-11-20T16:16:05;7.57;;;5.70;;
10509;SDS011;5303;53.266;10.410;2022-11-20T16:18:34;6.67;;;5.60;;
10509;SDS011;5303;53.266;10.410;2022-11-20T16:20:59;8.43;;;6.50;;
10509;SDS011;5303;53.266;10.410;2022-11-20T16:23:25;7.23;;;6.17;;
10509;SDS011;5303;53.266;10.410;2022-11-20T16:25:50;7.27;;;6.50;;